createdAt,value
2022-12-17T00:01:32.315Z,-4.52
2022-12-17T00:03:53.994Z,-4.48
2022-12-17T00:06:25.951Z,-4.55
2022-12-17T00:08:46.354Z,-4.69
2022-12-17T00:11:06.773Z,-4.70
2022-12-17T00:13:37.209Z,-4.88
2022-12-17T00:15:58.146Z,-4.77
2022-12-17T00:18:22.037Z,-4.98
2022-12-17T00:20:43.887Z,-5.01
2022-12-17T00:23:04.328Z,-4.90
2022-12-17T00:25:28.287Z,-4.87
2022-12-17T00:27:48.695Z,-4.81
2022-12-17T00:30:08.948Z,-4.92
2022-12-17T00:32:29.392Z,-5.10
2022-12-17T00:34:49.427Z,-5.07
2022-12-17T00:37:10.776Z,-5.16
2022-12-17T00:39:31.215Z,-5.20
2022-12-17T00:41:51.382Z,-5.05
2022-12-17T00:44:11.532Z,-5.11
2022-12-17T00:46:32.130Z,-5.20
2022-12-17T00:48:52.591Z,-5.31
2022-12-17T00:51:14.063Z,-5.41
2022-12-17T00:53:36.434Z,-5.35
2022-12-17T00:55:58.079Z,-5.41
2022-12-17T00:58:18.240Z,-5.40
2022-12-17T01:00:38.651Z,-5.52
2022-12-17T01:02:59.257Z,-5.42
2022-12-17T01:05:19.366Z,-5.40
2022-12-17T01:07:39.592Z,-5.36
2022-12-17T01:10:01.318Z,-5.34
2022-12-17T01:12:21.917Z,-5.31
2022-12-17T01:14:42.375Z,-5.23
2022-12-17T01:17:02.661Z,-5.23
2022-12-17T01:19:23.095Z,-5.20
2022-12-17T01:21:43.413Z,-5.38
2022-12-17T01:24:04.294Z,-5.42
2022-12-17T01:26:26.232Z,-5.42
2022-12-17T01:28:46.553Z,-5.43
2022-12-17T01:31:06.608Z,-5.44
2022-12-17T01:33:28.974Z,-5.33
2022-12-17T01:35:49.021Z,-5.42
2022-12-17T01:38:09.511Z,-5.37
2022-12-17T01:40:30.107Z,-5.35
2022-12-17T01:42:57.930Z,-5.33
2022-12-17T01:45:18.258Z,-5.31
2022-12-17T01:47:38.881Z,-5.29
2022-12-17T01:50:04.712Z,-5.44
2022-12-17T01:52:25.355Z,-5.37
2022-12-17T01:54:45.499Z,-5.45
2022-12-17T01:57:06.373Z,-5.45
2022-12-17T01:59:28.784Z,-5.32
2022-12-17T02:01:49.309Z,-5.48
2022-12-17T02:04:09.572Z,-5.63
2022-12-17T02:06:34.449Z,-5.51
2022-12-17T02:09:02.119Z,-5.63
2022-12-17T02:11:25.966Z,-5.56
2022-12-17T02:13:51.368Z,-5.56
2022-12-17T02:16:17.261Z,-5.53
2022-12-17T02:18:43.746Z,-5.49
2022-12-17T02:21:07.191Z,-5.50
2022-12-17T02:23:37.016Z,-5.49
2022-12-17T02:26:08.305Z,-5.59
2022-12-17T02:28:30.525Z,-5.55
2022-12-17T02:30:50.784Z,-5.51
2022-12-17T02:33:12.560Z,-5.46
2022-12-17T02:35:35.365Z,-5.52
2022-12-17T02:37:55.736Z,-5.61
2022-12-17T02:40:16.643Z,-5.53
2022-12-17T02:42:38.146Z,-5.48
2022-12-17T02:45:01.440Z,-5.54
2022-12-17T02:47:27.682Z,-5.57
2022-12-17T02:49:47.920Z,-5.64
2022-12-17T02:52:08.804Z,-5.61
2022-12-17T02:54:29.306Z,-5.57
2022-12-17T02:56:49.723Z,-5.63
2022-12-17T02:59:10.090Z,-5.64
2022-12-17T03:01:31.997Z,-5.64
2022-12-17T03:03:52.466Z,-5.89
2022-12-17T03:06:12.980Z,-5.82
2022-12-17T03:08:33.533Z,-5.74
2022-12-17T03:10:54.003Z,-5.78
2022-12-17T03:13:14.599Z,-5.83
2022-12-17T03:15:34.972Z,-5.73
2022-12-17T03:18:05.159Z,-5.74
2022-12-17T03:20:26.699Z,-5.73
2022-12-17T03:22:47.509Z,-5.72
2022-12-17T03:25:08.050Z,-5.66
2022-12-17T03:27:30.760Z,-5.79
2022-12-17T03:29:51.165Z,-5.59
2022-12-17T03:32:11.325Z,-5.51
2022-12-17T03:34:33.350Z,-5.42
2022-12-17T03:37:08.002Z,-5.45
2022-12-17T03:39:28.599Z,-5.39
2022-12-17T03:41:48.622Z,-5.35
2022-12-17T03:44:17.302Z,-5.32
2022-12-17T03:46:37.805Z,-5.21
2022-12-17T03:48:58.310Z,-5.11
2022-12-17T03:51:25.893Z,-5.11
2022-12-17T03:53:45.983Z,-5.08
2022-12-17T03:56:06.297Z,-5.02
2022-12-17T03:58:26.800Z,-4.96
2022-12-17T04:00:47.240Z,-4.98
2022-12-17T04:03:07.637Z,-4.93
2022-12-17T04:05:28.183Z,-4.98
2022-12-17T04:07:50.132Z,-5.10
2022-12-17T04:10:10.298Z,-5.12
2022-12-17T04:12:45.232Z,-4.92
2022-12-17T04:15:05.583Z,-5.15
2022-12-17T04:17:27.285Z,-5.03
2022-12-17T04:19:47.618Z,-4.96
2022-12-17T04:22:09.703Z,-4.96
2022-12-17T04:24:31.221Z,-5.25
2022-12-17T04:26:51.259Z,-5.56
2022-12-17T04:29:13.636Z,-5.49
2022-12-17T04:31:34.201Z,-5.11
2022-12-17T04:33:54.815Z,-5.22
2022-12-17T04:36:16.184Z,-5.09
2022-12-17T04:38:36.298Z,-5.11
2022-12-17T04:40:57.941Z,-5.22
2022-12-17T04:43:24.839Z,-5.25
2022-12-17T04:45:46.250Z,-5.46
2022-12-17T04:48:06.566Z,-5.26
2022-12-17T04:50:27.121Z,-5.08
2022-12-17T04:52:52.826Z,-4.96
2022-12-17T04:55:12.807Z,-4.93
2022-12-17T04:57:34.507Z,-4.99
2022-12-17T04:59:55.258Z,-5.24
2022-12-17T05:02:15.644Z,-5.50
2022-12-17T05:04:35.875Z,-5.44
2022-12-17T05:06:56.056Z,-5.49
2022-12-17T05:09:16.380Z,-5.29
2022-12-17T05:11:36.443Z,-5.63
2022-12-17T05:13:57.845Z,-5.35
2022-12-17T05:16:18.337Z,-5.32
2022-12-17T05:18:38.850Z,-5.37
2022-12-17T05:20:59.101Z,-5.72
2022-12-17T05:23:23.876Z,-5.60
2022-12-17T05:25:44.019Z,-5.38
2022-12-17T05:28:04.712Z,-5.23
2022-12-17T05:30:27.462Z,-5.51
2022-12-17T05:32:47.934Z,-5.59
2022-12-17T05:35:08.109Z,-5.83
2022-12-17T05:37:30.772Z,-5.96
2022-12-17T05:39:51.179Z,-6.18
2022-12-17T05:42:11.685Z,-6.14
2022-12-17T05:44:32.207Z,-6.13
2022-12-17T05:46:54.013Z,-6.37
2022-12-17T05:49:14.388Z,-6.40
2022-12-17T05:51:38.595Z,-6.32
2022-12-17T05:53:59.595Z,-6.36
2022-12-17T05:56:19.031Z,-6.38
2022-12-17T05:58:39.526Z,-6.28
2022-12-17T06:01:00.081Z,-6.09
2022-12-17T06:03:23.149Z,-6.01
2022-12-17T06:05:43.442Z,-6.42
2022-12-17T06:08:03.824Z,-6.48
2022-12-17T06:10:24.843Z,-6.63
2022-12-17T06:12:45.514Z,-6.55
2022-12-17T06:15:06.127Z,-6.71
2022-12-17T06:17:26.561Z,-6.51
2022-12-17T06:19:48.445Z,-6.35
2022-12-17T06:22:21.553Z,-6.25
2022-12-17T06:24:45.933Z,-6.16
2022-12-17T06:27:08.850Z,-6.10
2022-12-17T06:29:29.279Z,-5.98
2022-12-17T06:31:49.760Z,-6.36
2022-12-17T06:34:09.894Z,-6.51
2022-12-17T06:36:31.687Z,-6.32
2022-12-17T06:38:52.053Z,-6.07
2022-12-17T06:41:12.600Z,-6.09
2022-12-17T06:43:33.228Z,-6.15
2022-12-17T06:45:53.541Z,-6.10
2022-12-17T06:48:20.354Z,-6.19
2022-12-17T06:50:43.031Z,-6.49
2022-12-17T06:53:04.819Z,-6.37
2022-12-17T06:55:25.517Z,-6.09
2022-12-17T06:57:50.191Z,-6.31
2022-12-17T07:00:10.840Z,-6.19
2022-12-17T07:02:31.436Z,-6.20
2022-12-17T07:04:52.037Z,-6.35
2022-12-17T07:07:12.426Z,-6.33
2022-12-17T07:09:34.133Z,-6.54
2022-12-17T07:11:54.486Z,-6.75
2022-12-17T07:14:15.158Z,-6.56
2022-12-17T07:16:35.732Z,-6.32
2022-12-17T07:18:56.412Z,-6.64
2022-12-17T07:21:16.882Z,-6.69
2022-12-17T07:23:37.509Z,-6.47
2022-12-17T07:26:00.020Z,-6.40
2022-12-17T07:28:20.181Z,-6.14
2022-12-17T07:30:40.661Z,-6.22
2022-12-17T07:33:00.745Z,-6.34
2022-12-17T07:35:32.677Z,-6.49
2022-12-17T07:37:52.749Z,-6.48
2022-12-17T07:40:13.120Z,-6.42
2022-12-17T07:42:34.592Z,-6.31
2022-12-17T07:44:55.139Z,-6.59
2022-12-17T07:47:15.395Z,-6.59
2022-12-17T07:49:35.847Z,-6.52
2022-12-17T07:51:56.477Z,-6.70
2022-12-17T07:54:16.915Z,-6.56
2022-12-17T07:56:34.000Z,-6.46
2022-12-17T07:58:55.536Z,-6.57
2022-12-17T08:01:18.171Z,-6.73
2022-12-17T08:03:38.867Z,-6.77
2022-12-17T08:05:59.369Z,-6.58
2022-12-17T08:08:26.364Z,-6.50
2022-12-17T08:10:46.550Z,-6.50
2022-12-17T08:13:14.421Z,-6.58
2022-12-17T08:15:36.180Z,-6.67
2022-12-17T08:17:56.654Z,-6.62
2022-12-17T08:20:16.958Z,-6.59
2022-12-17T08:22:37.512Z,-6.53
2022-12-17T08:24:57.646Z,-6.60
2022-12-17T08:27:18.262Z,-6.50
2022-12-17T08:29:38.819Z,-6.72
2022-12-17T08:32:00.463Z,-6.26
2022-12-17T08:34:20.799Z,-6.12
2022-12-17T08:36:41.340Z,-5.86
2022-12-17T08:39:01.735Z,-6.32
2022-12-17T08:41:22.676Z,-5.89
2022-12-17T08:43:43.174Z,-6.13
2022-12-17T08:46:06.097Z,-5.89
2022-12-17T08:48:28.107Z,-5.98
2022-12-17T08:50:59.921Z,-6.22
2022-12-17T08:53:22.294Z,-6.00
2022-12-17T08:55:42.769Z,-6.02
2022-12-17T08:58:11.538Z,-5.93
2022-12-17T09:00:32.787Z,-6.13
2022-12-17T09:02:49.435Z,-6.10
2022-12-17T09:05:11.312Z,-5.78
2022-12-17T09:07:31.608Z,-5.47
2022-12-17T09:09:52.011Z,-5.79
2022-12-17T09:12:12.364Z,-5.54
2022-12-17T09:14:32.772Z,-5.39
2022-12-17T09:16:53.407Z,-5.28
2022-12-17T09:19:13.967Z,-5.65
2022-12-17T09:21:35.610Z,-5.77
2022-12-17T09:23:56.079Z,-5.96
2022-12-17T09:26:16.527Z,-5.52
2022-12-17T09:28:36.908Z,-5.38
2022-12-17T09:30:57.090Z,-5.92
2022-12-17T09:33:17.236Z,-6.31
2022-12-17T09:35:37.769Z,-6.15
2022-12-17T09:37:59.539Z,-6.03
2022-12-17T09:40:19.955Z,-5.94
2022-12-17T09:42:49.945Z,-5.72
2022-12-17T09:45:15.362Z,-5.72
2022-12-17T09:47:48.525Z,-5.88
2022-12-17T09:50:09.056Z,-5.47
2022-12-17T09:52:39.009Z,-5.43
2022-12-17T09:55:04.483Z,-5.17
2022-12-17T09:57:29.414Z,-5.82
2022-12-17T09:59:53.323Z,-6.00
2022-12-17T10:02:10.316Z,-6.05
2022-12-17T10:04:35.407Z,-6.05
2022-12-17T10:06:55.676Z,-6.21
2022-12-17T10:09:19.400Z,-5.82
2022-12-17T10:11:43.066Z,-5.50
2022-12-17T10:14:03.586Z,-5.68
2022-12-17T10:16:38.655Z,-5.45
2022-12-17T10:18:59.208Z,-5.10
2022-12-17T10:21:21.583Z,-5.14
2022-12-17T10:23:43.699Z,-5.54
2022-12-17T10:26:10.230Z,-5.34
2022-12-17T10:28:33.337Z,-5.39
2022-12-17T10:30:54.835Z,-5.28
2022-12-17T10:33:14.990Z,-5.31
2022-12-17T10:35:38.611Z,-5.13
2022-12-17T10:37:59.606Z,-5.30
2022-12-17T10:40:21.440Z,-5.56
2022-12-17T10:42:44.475Z,-5.33
2022-12-17T10:45:06.241Z,-5.34
2022-12-17T10:47:30.088Z,-4.80
2022-12-17T10:49:50.809Z,-4.58
2022-12-17T10:52:17.133Z,-5.16
2022-12-17T10:54:48.727Z,-5.18
2022-12-17T10:57:12.695Z,-5.07
2022-12-17T10:59:46.990Z,-5.05
2022-12-17T11:02:16.642Z,-4.92
2022-12-17T11:04:43.173Z,-5.06
2022-12-17T11:07:06.072Z,-4.93
2022-12-17T11:09:35.491Z,-5.45
2022-12-17T11:11:56.428Z,-5.79
2022-12-17T11:14:22.480Z,-5.87
2022-12-17T11:16:45.786Z,-5.67
2022-12-17T11:19:14.155Z,-5.59
2022-12-17T11:21:39.593Z,-5.35
2022-12-17T11:24:03.231Z,-5.38
2022-12-17T11:26:28.762Z,-5.44
2022-12-17T11:28:53.347Z,-5.23
2022-12-17T11:31:24.627Z,-4.97
2022-12-17T11:33:51.108Z,-5.24
2022-12-17T11:36:23.013Z,-4.97
2022-12-17T11:38:57.381Z,-4.87
2022-12-17T11:41:25.857Z,-5.67
2022-12-17T11:43:53.038Z,-5.22
2022-12-17T11:46:21.751Z,-5.53
2022-12-17T11:48:52.523Z,-5.31
2022-12-17T11:51:21.292Z,-4.84
2022-12-17T11:53:59.925Z,-4.97
2022-12-17T11:56:30.892Z,-5.33
2022-12-17T11:58:55.521Z,-5.43
2022-12-17T12:01:25.094Z,-5.33
2022-12-17T12:03:55.147Z,-5.11
2022-12-17T12:06:18.764Z,-4.76
2022-12-17T12:08:43.335Z,-4.94
2022-12-17T12:11:15.001Z,-4.84
2022-12-17T12:13:45.814Z,-5.41
2022-12-17T12:16:18.745Z,-4.90
2022-12-17T12:18:49.383Z,-5.54
2022-12-17T12:21:27.563Z,-5.42
2022-12-17T12:24:01.672Z,-5.04
2022-12-17T12:26:30.020Z,-5.51
2022-12-17T12:28:55.794Z,-5.02
2022-12-17T12:31:26.867Z,-5.54
2022-12-17T12:33:59.256Z,-5.46
2022-12-17T12:36:23.971Z,-5.37
2022-12-17T12:38:50.224Z,-5.44
2022-12-17T12:41:18.375Z,-5.54
2022-12-17T12:43:41.536Z,-5.34
2022-12-17T12:46:09.610Z,-5.53
2022-12-17T12:48:43.975Z,-5.41
2022-12-17T12:51:09.341Z,-6.06
2022-12-17T12:53:31.748Z,-6.31
2022-12-17T12:55:57.334Z,-6.32
2022-12-17T12:58:19.342Z,-6.51
2022-12-17T13:00:42.568Z,-6.07
2022-12-17T13:03:03.588Z,-6.45
2022-12-17T13:05:35.903Z,-6.41
2022-12-17T13:07:38.603Z,-5.86
2022-12-17T13:09:50.343Z,-6.16
2022-12-17T13:11:57.952Z,-5.56
2022-12-17T13:14:07.223Z,-5.82
2022-12-17T13:16:31.142Z,-5.75
2022-12-17T13:18:36.263Z,-5.22
2022-12-17T13:20:39.193Z,-5.47
2022-12-17T13:22:51.384Z,-5.54
2022-12-17T13:24:57.802Z,-5.02
2022-12-17T13:27:03.842Z,-5.16
2022-12-17T13:29:22.632Z,-5.20
2022-12-17T13:31:28.128Z,-5.68
2022-12-17T13:33:41.337Z,-5.60
2022-12-17T13:35:55.424Z,-5.40
2022-12-17T13:38:05.909Z,-5.50
2022-12-17T13:40:26.603Z,-5.53
2022-12-17T13:42:31.562Z,-5.65
2022-12-17T13:44:41.415Z,-5.82
2022-12-17T13:46:47.691Z,-5.51
2022-12-17T13:48:56.388Z,-6.17
2022-12-17T13:51:01.955Z,-6.26
2022-12-17T13:53:11.589Z,-6.07
2022-12-17T13:55:21.141Z,-5.80
2022-12-17T13:57:25.821Z,-6.12
2022-12-17T13:59:29.877Z,-6.46
2022-12-17T14:01:33.434Z,-5.97
2022-12-17T14:04:04.237Z,-5.97
2022-12-17T14:05:59.970Z,-5.82
2022-12-17T14:08:05.320Z,-5.74
2022-12-17T14:10:17.504Z,-6.03
2022-12-17T14:12:23.967Z,-6.80
2022-12-17T14:14:32.488Z,-6.40
2022-12-17T14:16:35.401Z,-6.49
2022-12-17T14:18:41.694Z,-6.42
2022-12-17T14:20:44.879Z,-6.75
2022-12-17T14:22:51.825Z,-6.78
2022-12-17T14:24:54.685Z,-6.77
2022-12-17T14:27:01.039Z,-6.61
2022-12-17T14:29:14.041Z,-6.31
2022-12-17T14:31:29.186Z,-6.17
2022-12-17T14:33:33.572Z,-6.48
2022-12-17T14:35:40.794Z,-6.22
2022-12-17T14:37:47.964Z,-6.42
2022-12-17T14:39:50.503Z,-6.45
2022-12-17T14:42:24.105Z,-6.50
2022-12-17T14:44:30.532Z,-6.21
2022-12-17T14:46:35.916Z,-6.43
2022-12-17T14:48:56.327Z,-6.62
2022-12-17T14:50:59.349Z,-6.96
2022-12-17T14:53:07.057Z,-6.96
2022-12-17T14:55:30.420Z,-7.07
2022-12-17T14:57:33.471Z,-7.13
2022-12-17T14:59:39.388Z,-7.13
2022-12-17T15:01:43.802Z,-7.19
2022-12-17T15:03:47.453Z,-7.25
2022-12-17T15:05:53.691Z,-7.25
2022-12-17T15:07:57.071Z,-7.27
2022-12-17T15:10:10.053Z,-7.19
2022-12-17T15:12:12.886Z,-7.13
2022-12-17T15:14:16.010Z,-7.35
2022-12-17T15:16:21.368Z,-7.39
2022-12-17T15:18:24.215Z,-7.26
2022-12-17T15:20:27.034Z,-7.41
2022-12-17T15:22:29.779Z,-7.44
2022-12-17T15:24:32.603Z,-7.47
2022-12-17T15:26:35.389Z,-7.56
2022-12-17T15:28:38.510Z,-7.54
2022-12-17T15:30:41.696Z,-7.53
2022-12-17T15:32:46.393Z,-7.47
2022-12-17T15:34:50.416Z,-7.42
2022-12-17T15:36:53.280Z,-7.47
2022-12-17T15:38:56.367Z,-7.65
2022-12-17T15:41:01.295Z,-7.67
2022-12-17T15:43:11.831Z,-7.43
2022-12-17T15:45:14.670Z,-7.46
2022-12-17T15:47:17.423Z,-7.48
2022-12-17T15:49:21.934Z,-7.43
2022-12-17T15:51:24.731Z,-7.56
2022-12-17T15:53:27.652Z,-7.65
2022-12-17T15:55:31.005Z,-7.61
2022-12-17T15:57:33.897Z,-7.61
2022-12-17T15:59:38.344Z,-7.41
2022-12-17T16:01:41.313Z,-7.37
2022-12-17T16:03:44.450Z,-7.65
2022-12-17T16:05:48.899Z,-7.62
2022-12-17T16:07:52.355Z,-7.73
2022-12-17T16:09:57.930Z,-7.79
2022-12-17T16:12:03.130Z,-7.64
2022-12-17T16:14:06.056Z,-7.76
2022-12-17T16:16:10.136Z,-7.88
2022-12-17T16:18:13.202Z,-7.95
2022-12-17T16:20:15.951Z,-7.93
2022-12-17T16:22:20.083Z,-7.94
2022-12-17T16:24:22.984Z,-7.95
2022-12-17T16:26:25.805Z,-8.02
2022-12-17T16:28:29.894Z,-7.90
2022-12-17T16:30:32.628Z,-7.79
2022-12-17T16:32:36.761Z,-7.93
2022-12-17T16:34:39.823Z,-7.89
2022-12-17T16:36:43.158Z,-8.12
2022-12-17T16:38:49.546Z,-8.02
2022-12-17T16:40:56.333Z,-8.02
2022-12-17T16:42:59.002Z,-7.88
2022-12-17T16:45:01.824Z,-7.93
2022-12-17T16:47:04.917Z,-8.15
2022-12-17T16:49:09.668Z,-8.07
2022-12-17T16:51:21.067Z,-8.16
2022-12-17T16:53:26.847Z,-8.17
2022-12-17T16:55:30.986Z,-8.16
2022-12-17T16:57:33.705Z,-8.47
2022-12-17T16:59:36.450Z,-8.54
2022-12-17T17:01:40.875Z,-8.69
2022-12-17T17:03:43.965Z,-8.79
2022-12-17T17:05:46.680Z,-8.75
2022-12-17T17:07:49.400Z,-8.68
2022-12-17T17:09:52.224Z,-8.57
2022-12-17T17:11:58.617Z,-8.51
2022-12-17T17:14:01.783Z,-8.44
2022-12-17T17:16:05.413Z,-8.51
2022-12-17T17:18:08.227Z,-8.48
2022-12-17T17:20:12.334Z,-8.38
2022-12-17T17:22:15.067Z,-8.41
2022-12-17T17:24:22.087Z,-8.44
2022-12-17T17:26:26.213Z,-8.30
2022-12-17T17:28:30.334Z,-8.30
2022-12-17T17:30:33.153Z,-8.29
2022-12-17T17:32:36.020Z,-8.31
2022-12-17T17:34:39.076Z,-8.23
2022-12-17T17:36:42.727Z,-8.25
2022-12-17T17:38:46.216Z,-8.17
2022-12-17T17:40:49.030Z,-8.10
2022-12-17T17:42:53.033Z,-8.13
2022-12-17T17:44:57.404Z,-7.95
2022-12-17T17:47:00.566Z,-8.01
2022-12-17T17:49:05.132Z,-8.10
2022-12-17T17:51:10.618Z,-8.14
2022-12-17T17:53:13.262Z,-8.13
2022-12-17T17:55:16.332Z,-8.07
2022-12-17T17:57:19.030Z,-8.07
2022-12-17T17:59:27.772Z,-8.08
2022-12-17T18:01:39.276Z,-7.95
2022-12-17T18:03:42.678Z,-7.99
2022-12-17T18:05:45.312Z,-8.05
2022-12-17T18:07:48.011Z,-8.26
2022-12-17T18:09:50.689Z,-8.15
2022-12-17T18:11:53.398Z,-8.15
2022-12-17T18:13:56.061Z,-8.06
2022-12-17T18:16:01.754Z,-8.23
2022-12-17T18:18:12.644Z,-8.14
2022-12-17T18:20:17.381Z,-8.19
2022-12-17T18:22:20.063Z,-8.14
2022-12-17T18:24:24.214Z,-8.07
2022-12-17T18:26:28.376Z,-8.17
2022-12-17T18:28:31.036Z,-8.15
2022-12-17T18:30:33.724Z,-8.15
2022-12-17T18:32:36.654Z,-8.10
2022-12-17T18:34:40.828Z,-8.11
2022-12-17T18:36:45.112Z,-8.16
2022-12-17T18:38:48.347Z,-8.20
2022-12-17T18:40:51.036Z,-8.20
2022-12-17T18:43:25.948Z,-8.29
2022-12-17T18:45:28.600Z,-8.32
2022-12-17T18:47:31.328Z,-8.20
2022-12-17T18:49:33.986Z,-8.23
2022-12-17T18:51:39.744Z,-8.26
2022-12-17T18:53:42.375Z,-8.17
2022-12-17T18:55:45.083Z,-8.29
2022-12-17T18:57:47.775Z,-8.27
2022-12-17T18:59:50.422Z,-8.16
2022-12-17T19:01:54.464Z,-8.25
2022-12-17T19:03:58.121Z,-8.28
2022-12-17T19:06:05.683Z,-8.21
2022-12-17T19:08:09.644Z,-8.24
2022-12-17T19:10:12.343Z,-8.10
2022-12-17T19:12:15.097Z,-8.16
2022-12-17T19:14:18.186Z,-8.19
2022-12-17T19:16:22.761Z,-8.19
2022-12-17T19:18:25.482Z,-8.38
2022-12-17T19:20:28.271Z,-8.44
2022-12-17T19:22:31.007Z,-8.51
2022-12-17T19:24:35.012Z,-8.53
2022-12-17T19:26:37.692Z,-8.50
2022-12-17T19:28:41.831Z,-8.51
2022-12-17T19:30:44.575Z,-8.58
2022-12-17T19:32:47.299Z,-8.62
2022-12-17T19:34:49.968Z,-8.60
2022-12-17T19:36:52.941Z,-8.55
2022-12-17T19:38:57.017Z,-8.44
2022-12-17T19:41:05.561Z,-8.37
2022-12-17T19:43:08.175Z,-8.43
2022-12-17T19:45:11.484Z,-8.46
2022-12-17T19:47:14.099Z,-8.33
2022-12-17T19:49:17.767Z,-8.46
2022-12-17T19:51:23.494Z,-8.51
2022-12-17T19:53:27.286Z,-8.38
2022-12-17T19:55:29.934Z,-8.48
2022-12-17T19:57:35.166Z,-8.58
2022-12-17T19:59:37.861Z,-8.52
2022-12-17T20:01:42.654Z,-8.64
2022-12-17T20:03:46.651Z,-8.65
2022-12-17T20:05:49.643Z,-8.67
2022-12-17T20:07:52.335Z,-8.66
2022-12-17T20:09:55.100Z,-8.71
2022-12-17T20:11:57.761Z,-8.75
2022-12-17T20:14:03.653Z,-8.66
2022-12-17T20:16:07.149Z,-8.58
2022-12-17T20:18:09.805Z,-8.61
2022-12-17T20:20:13.097Z,-8.64
2022-12-17T20:22:15.843Z,-8.75
2022-12-17T20:24:19.132Z,-8.70
2022-12-17T20:26:22.397Z,-8.77
2022-12-17T20:28:25.107Z,-8.59
2022-12-17T20:30:29.094Z,-8.75
2022-12-17T20:32:34.772Z,-8.83
2022-12-17T20:34:37.381Z,-8.75
2022-12-17T20:36:40.593Z,-8.68
2022-12-17T20:38:45.097Z,-8.78
2022-12-17T20:40:47.727Z,-8.61
2022-12-17T20:42:53.107Z,-8.86
2022-12-17T20:44:55.721Z,-8.88
2022-12-17T20:47:01.233Z,-8.81
2022-12-17T20:49:05.342Z,-8.75
2022-12-17T20:51:09.659Z,-8.81
2022-12-17T20:53:12.398Z,-8.58
2022-12-17T20:55:15.160Z,-8.60
2022-12-17T20:57:17.853Z,-8.80
2022-12-17T20:59:20.724Z,-8.76
2022-12-17T21:01:25.472Z,-8.73
2022-12-17T21:03:29.707Z,-8.91
2022-12-17T21:05:35.567Z,-8.96
2022-12-17T21:07:38.313Z,-8.89
2022-12-17T21:09:41.024Z,-8.75
2022-12-17T21:11:43.847Z,-8.81
2022-12-17T21:13:46.679Z,-8.91
2022-12-17T21:15:50.635Z,-9.05
2022-12-17T21:17:53.380Z,-9.07
2022-12-17T21:20:01.499Z,-9.10
2022-12-17T21:22:08.643Z,-9.04
2022-12-17T21:24:13.233Z,-9.07
2022-12-17T21:26:18.939Z,-8.95
2022-12-17T21:28:24.551Z,-9.04
2022-12-17T21:30:27.319Z,-9.08
2022-12-17T21:32:33.661Z,-9.15
2022-12-17T21:34:36.719Z,-9.19
2022-12-17T21:36:42.148Z,-9.10
2022-12-17T21:38:45.497Z,-9.10
2022-12-17T21:40:48.272Z,-9.02
2022-12-17T21:43:02.888Z,-8.89
2022-12-17T21:45:06.275Z,-8.95
2022-12-17T21:47:09.427Z,-9.00
2022-12-17T21:49:12.446Z,-8.96
2022-12-17T21:51:15.718Z,-8.95
2022-12-17T21:53:20.149Z,-8.89
2022-12-17T21:55:23.171Z,-8.75
2022-12-17T21:57:25.807Z,-8.66
2022-12-17T21:59:28.554Z,-8.58
2022-12-17T22:01:33.304Z,-8.60
2022-12-17T22:03:36.076Z,-8.61
2022-12-17T22:05:39.307Z,-8.65
2022-12-17T22:07:46.328Z,-8.65
2022-12-17T22:10:08.533Z,-8.71
2022-12-17T22:12:28.843Z,-8.55
2022-12-17T22:14:31.618Z,-8.48
2022-12-17T22:16:36.503Z,-8.45
2022-12-17T22:18:40.199Z,-8.60
2022-12-17T22:20:43.110Z,-8.53
2022-12-17T22:22:46.170Z,-8.54
2022-12-17T22:24:48.994Z,-8.38
2022-12-17T22:26:59.580Z,-8.18
2022-12-17T22:29:03.126Z,-8.18
2022-12-17T22:31:24.155Z,-8.20
2022-12-17T22:34:05.423Z,-8.19
2022-12-17T22:37:24.165Z,-8.28
2022-12-17T22:42:16.780Z,-8.26
2022-12-17T22:44:36.460Z,-8.28
2022-12-17T22:44:38.629Z,-8.34
2022-12-17T22:45:43.647Z,-8.32
2022-12-17T22:47:46.401Z,-8.40
2022-12-17T22:49:49.138Z,-8.36
2022-12-17T22:51:51.924Z,-8.16
2022-12-17T22:53:55.265Z,-8.11
2022-12-17T22:56:13.383Z,-8.15
2022-12-17T22:58:22.705Z,-8.07
2022-12-17T23:00:27.689Z,-8.12
2022-12-17T23:02:30.494Z,-8.14
2022-12-17T23:04:33.216Z,-8.19
2022-12-17T23:06:35.879Z,-8.23
2022-12-17T23:08:38.980Z,-8.34
2022-12-17T23:10:41.713Z,-8.37
2022-12-17T23:12:54.321Z,-8.50
2022-12-17T23:14:58.373Z,-8.47
2022-12-17T23:17:01.036Z,-8.27
2022-12-17T23:19:04.879Z,-8.21
2022-12-17T23:21:08.829Z,-8.34
2022-12-17T23:23:11.560Z,-8.30
2022-12-17T23:25:15.542Z,-8.39
2022-12-17T23:27:18.269Z,-8.36
2022-12-17T23:29:20.988Z,-8.52
2022-12-17T23:31:27.189Z,-8.54
2022-12-17T23:33:29.919Z,-8.51
2022-12-17T23:35:32.831Z,-8.46
2022-12-17T23:37:39.837Z,-8.44
2022-12-17T23:39:42.866Z,-8.55
2022-12-17T23:41:45.597Z,-8.55
2022-12-17T23:43:49.042Z,-8.55
2022-12-17T23:45:51.665Z,-8.82
2022-12-17T23:47:57.554Z,-8.93
2022-12-17T23:50:00.224Z,-9.08
2022-12-17T23:52:03.004Z,-9.12
2022-12-17T23:54:05.950Z,-9.12
2022-12-17T23:56:11.588Z,-9.18
2022-12-17T23:58:14.502Z,-9.20
